• Join FlightAware (Why Join?)
  • Login
  • US Flag 
09:10PM EST


 

Airport Tracker/Info


-or-


 

Live Flight TrackerFlight Track Log ✈ JIA2337 ✈ 27-Apr-2012 ✈ KCLT - KBHM

Flight Track Log - Related Links

Times and Time Zones

All times are in EDT time to prevent confusion due to time zone crossing. See the JIA2337 flight status page for this flight to view local times or setup timezone preferences in your user account.

Time Position Orientation Groundspeed Altitude Reporting Facility
EDT Latitude Longitude Course Direction KTS MPH feet Rate Location/Type
07:41AM 35.2010 -80.9784 178° South  Level FlightAware Approximate
07:42AM 35.1498 -81.0955 97° East  Level FlightAware Approximate
07:43AM 35.1375 -80.9758 261° West 199 229 4,300  Level Atlanta Center
07:44AM 35.1289 -81.0422 257° West 248 285 5,900 1,620 Climbing Atlanta Center
07:45AM 35.1139 -81.1214 259° West 254 292 7,400 2,100 Climbing Atlanta Center
07:46AM 35.1014 -81.2031 256° West 281 323 10,200 2,100 Climbing Atlanta Center
07:47AM 35.0825 -81.2975 251° West 287 330 11,700 1,680 Climbing Atlanta Center
07:48AM 35.0536 -81.3975 252° West 302 348 13,600 1,860 Climbing Atlanta Center
07:49AM 35.0264 -81.4972 249° West 313 360 15,500 1,800 Climbing Atlanta Center
07:50AM 34.9911 -81.6100 249° West 318 366 17,300 1,800 Climbing Atlanta Center
07:51AM 34.9597 -81.7097 249° West 318 366 19,100 1,560 Climbing Atlanta Center
07:52AM 34.9281 -81.8094 237° Southwest 318 366 20,500 1,200 Climbing Atlanta Center
07:53AM 34.8756 -81.9069 235° Southwest 325 374 21,500 1,080 Climbing Atlanta Center
07:54AM 34.8208 -82.0019 234° Southwest 344 396 22,700 1,140 Climbing Atlanta Center
07:55AM 34.7639 -82.0969 237° Southwest 354 407 23,800 1,020 Climbing Atlanta Center
07:56AM 34.7092 -82.1992 235° Southwest 359 413 24,800 900 Climbing Atlanta Center
07:57AM 34.6503 -82.3017 236° Southwest 370 426 25,700 900 Climbing Atlanta Center
07:58AM 34.5931 -82.4036 236° Southwest 370 426 26,600 720 Climbing Atlanta Center
07:59AM 34.5339 -82.5083 235° Southwest 375 432 27,200 540 Climbing Atlanta Center
08:00AM 34.4747 -82.6125 232° Southwest 375 432 27,700 480 Climbing Atlanta Center
08:01AM 34.4069 -82.7194 236° Southwest 391 450 28,200 600 Climbing Atlanta Center
08:02AM 34.3456 -82.8286 237° Southwest 401 461 29,000 720 Climbing Atlanta Center
08:03AM 34.2861 -82.9375 234° Southwest 401 461 29,700 480 Climbing Atlanta Center
08:04AM 34.2203 -83.0464 235° Southwest 406 467 30,000 120 Climbing Atlanta Center
08:05AM 34.1583 -83.1525 234° Southwest 401 461 30,000  Level Atlanta Center
08:06AM 34.1006 -83.2486 235° Southwest 401 461 30,000  Level Atlanta Center
08:07AM 34.0367 -83.3569 236° Southwest 396 456 30,000  Level Atlanta Center
08:08AM 33.9767 -83.4625 233° Southwest 396 456 30,000  Level Atlanta Center
08:09AM 33.9122 -83.5658 236° Southwest 402 463 30,000  Level Atlanta Center
08:10AM 33.8522 -83.6736 250° West 402 463 30,000  Level Atlanta Center
08:11AM 33.8150 -83.7939 251° West 386 444 30,000  Level Atlanta Center
08:12AM 33.7775 -83.9239 251° West 381 438 30,000 -60 Level Atlanta Center
08:13AM 33.7419 -84.0464 250° West 381 438 29,900 -600 Descending Atlanta Center
08:14AM 33.7064 -84.1661 252° West 386 444 28,900 -960 Descending Atlanta Center
08:15AM 33.6772 -84.2733 250° West 386 444 28,000 -960 Descending Atlanta Center
08:16AM 33.6414 -84.3906 265° West 386 444 27,000 -1,080 Descending Atlanta Center
08:17AM 33.6306 -84.5253 272° West 380 437 25,900 -1,080 Descending Atlanta Center
08:18AM 33.6342 -84.6500 272° West 368 423 24,900 -1,020 Descending Atlanta Center
08:19AM 33.6375 -84.7700 271° West 361 415 23,900 -1,020 Descending Atlanta Center
08:20AM 33.6389 -84.8822 272° West 368 423 22,900 -1,020 Descending Atlanta Center
08:21AM 33.6422 -85.0044 272° West 368 423 21,900 -960 Descending Atlanta Center
08:22AM 33.6453 -85.1342 272° West 363 418 21,000 -600 Descending Atlanta Center
08:23AM 33.6486 -85.2467 272° West 357 411 20,700 -420 Descending Atlanta Center
08:24AM 33.6517 -85.3489 271° West 330 380 20,200 -600 Descending Atlanta Center
08:25AM 33.6528 -85.4464 272° West 300 345 19,600 -900 Descending Atlanta Center
08:26AM 33.6556 -85.5461 271° West 295 339 18,500 -1,020 Descending Atlanta Center
08:27AM 33.6564 -85.6511 269° West 307 353 17,600 -1,020 Descending Atlanta Center
08:28AM 33.6550 -85.7633 272° West 320 368 16,500 -1,200 Descending Atlanta Center
08:29AM 33.6578 -85.8558 270° West 317 365 15,300 -1,620 Descending Atlanta Center
08:30AM 33.6583 -85.9581 270° West 306 352 13,500 -1,740 Descending Atlanta Center
08:31AM 33.6589 -86.0553 272° West 293 337 11,800 -1,260 Descending Atlanta Center
08:32AM 33.6614 -86.1478 270° West 277 319 11,000 -420 Descending Atlanta Center
08:33AM 33.6619 -86.2303 273° West 235 270 11,000 -600 Level Atlanta Center
08:34AM 33.6650 -86.2975 269° West 242 278 9,800 -2,040 Descending Atlanta Center
08:35AM 33.6633 -86.3850 272° West 247 284 7,000 -2,520 Descending Atlanta Center
08:36AM 33.6658 -86.4772 268° West 254 292 4,800 -2,220 Descending Atlanta Center
08:37AM 33.6639 -86.5647 268° West 259 298 2,600 -2,220 Descending Atlanta Center